Terminal Aerodrome Forecast
Issued by NWS Boston, MA

Home | Current Version | Previous Version | Text Only | Print | Product List | Glossary On
Versions: 1 2 3 4 5 6 7 8 9 10 11 12 13 14 15 16 17 18
000
FTUS41 KBOX 240532
TAFORH
TAF
KORH 240532Z 2406/2506 27007KT P6SM SCT120
     FM241500 21011G24KT P6SM VCSH OVC070
     FM242300 23013KT P6SM OVC035
     FM250000 23012KT P6SM OVC020 WS020/24040KT
     FM250200 24012KT P6SM OVC025=

USA.gov is the U.S. government's official web portal to all federal, state and local government web resources and services.